createdAt,value
2018-12-03T00:01:36.928Z,1.93
2018-12-03T00:04:09.048Z,2.87
2018-12-03T00:06:36.592Z,2.40
2018-12-03T00:09:08.050Z,2.47
2018-12-03T00:11:36.037Z,3.27
2018-12-03T00:14:03.613Z,3.20
2018-12-03T00:16:31.157Z,1.93
2018-12-03T00:18:58.613Z,4.20
2018-12-03T00:21:26.294Z,3.83
2018-12-03T00:23:53.855Z,3.63
2018-12-03T00:26:21.361Z,2.67
2018-12-03T00:28:48.953Z,3.57
2018-12-03T00:31:16.746Z,3.40
2018-12-03T00:33:44.307Z,3.87
2018-12-03T00:36:11.788Z,3.73
2018-12-03T00:38:39.319Z,3.90
2018-12-03T00:41:13.872Z,4.57
2018-12-03T00:43:41.526Z,4.10
2018-12-03T00:46:09.214Z,3.70
2018-12-03T00:48:36.733Z,7.03
2018-12-03T00:51:04.567Z,7.63
2018-12-03T00:53:32.196Z,7.50
2018-12-03T00:55:59.730Z,5.70
2018-12-03T00:58:27.376Z,5.73
2018-12-03T01:00:54.899Z,7.57
2018-12-03T01:03:22.454Z,6.30
2018-12-03T01:05:49.962Z,9.40
2018-12-03T01:08:17.488Z,9.30
2018-12-03T01:10:45.193Z,8.20
2018-12-03T01:13:12.654Z,10.83
2018-12-03T01:15:40.212Z,16.17
2018-12-03T01:18:07.675Z,11.77
2018-12-03T01:20:35.161Z,10.20
2018-12-03T01:23:02.711Z,9.50
2018-12-03T01:25:30.526Z,9.27
2018-12-03T01:27:58.114Z,9.40
2018-12-03T01:30:25.616Z,9.37
2018-12-03T01:32:53.048Z,8.60
2018-12-03T01:35:20.534Z,5.27
2018-12-03T01:37:47.987Z,9.40
2018-12-03T01:40:15.501Z,11.27
2018-12-03T01:42:42.936Z,11.37
2018-12-03T01:45:11.623Z,3.90
2018-12-03T01:47:39.254Z,5.67
2018-12-03T01:50:10.843Z,9.83
2018-12-03T01:52:38.322Z,7.33
2018-12-03T01:55:07.500Z,10.33
2018-12-03T01:57:34.976Z,7.33
2018-12-03T02:00:02.720Z,4.37
2018-12-03T02:02:30.238Z,5.97
2018-12-03T02:04:57.890Z,4.93
2018-12-03T02:07:25.326Z,7.40
2018-12-03T02:09:52.784Z,5.53
2018-12-03T02:12:20.295Z,8.57
2018-12-03T02:14:47.780Z,5.73
2018-12-03T02:17:15.328Z,8.63
2018-12-03T02:19:42.898Z,6.97
2018-12-03T02:22:10.396Z,7.07
2018-12-03T02:24:37.802Z,12.43
2018-12-03T02:27:05.660Z,14.07
2018-12-03T02:29:33.161Z,12.57
2018-12-03T02:32:00.740Z,12.47
2018-12-03T02:34:28.344Z,12.13
2018-12-03T02:36:55.959Z,13.77
2018-12-03T02:39:23.426Z,15.80
2018-12-03T02:41:50.883Z,15.10
2018-12-03T02:44:18.338Z,11.23
2018-12-03T02:46:45.841Z,11.63
2018-12-03T02:49:13.297Z,12.17
2018-12-03T02:51:40.905Z,15.80
2018-12-03T02:54:08.361Z,7.87
2018-12-03T02:56:35.809Z,9.30
2018-12-03T02:59:03.479Z,13.07
2018-12-03T03:01:31.004Z,7.97
2018-12-03T03:03:58.493Z,6.57
2018-12-03T03:06:26.067Z,9.20
2018-12-03T03:08:53.623Z,10.07
2018-12-03T03:11:21.097Z,9.93
2018-12-03T03:13:48.531Z,8.00
2018-12-03T03:16:15.994Z,5.03
2018-12-03T03:18:43.733Z,7.27
2018-12-03T03:21:11.387Z,8.70
2018-12-03T03:23:38.874Z,3.93
2018-12-03T03:26:06.377Z,6.63
2018-12-03T03:28:33.878Z,5.60
2018-12-03T03:31:01.334Z,5.53
2018-12-03T03:33:28.776Z,5.73
2018-12-03T03:35:56.473Z,6.43
2018-12-03T03:38:23.955Z,5.13
2018-12-03T03:40:51.518Z,5.20
2018-12-03T03:43:19.007Z,3.87
2018-12-03T03:45:46.457Z,6.37
2018-12-03T03:48:13.927Z,4.07
2018-12-03T03:50:41.399Z,5.87
2018-12-03T03:53:09.014Z,4.10
2018-12-03T03:55:36.459Z,3.90
2018-12-03T03:58:03.951Z,3.00
2018-12-03T04:00:31.429Z,2.93
2018-12-03T04:02:58.964Z,5.73
2018-12-03T04:05:26.451Z,2.20
2018-12-03T04:07:53.924Z,3.80
2018-12-03T04:10:21.583Z,2.13
2018-12-03T04:12:49.039Z,2.27
2018-12-03T04:15:16.639Z,5.20
2018-12-03T04:17:44.294Z,3.93
2018-12-03T04:20:21.164Z,2.37
2018-12-03T04:22:51.220Z,3.33
2018-12-03T04:25:18.807Z,3.93
2018-12-03T04:27:47.182Z,2.17
2018-12-03T04:30:16.399Z,4.20
2018-12-03T04:32:43.912Z,2.70
2018-12-03T04:35:12.160Z,3.47
2018-12-03T04:37:39.797Z,4.63
2018-12-03T04:40:10.206Z,8.33
2018-12-03T04:42:37.781Z,7.20
2018-12-03T04:45:08.812Z,5.67
2018-12-03T04:47:36.616Z,9.33
2018-12-03T04:50:06.851Z,5.37
2018-12-03T04:52:34.294Z,5.50
2018-12-03T04:55:01.721Z,4.83
2018-12-03T04:57:29.481Z,6.33
2018-12-03T04:59:57.028Z,4.23
2018-12-03T05:02:24.642Z,3.97
2018-12-03T05:04:52.306Z,3.37
2018-12-03T05:07:19.832Z,1.67
2018-12-03T05:09:47.328Z,1.97
2018-12-03T05:12:15.093Z,2.83
2018-12-03T05:14:42.551Z,5.17
2018-12-03T05:17:10.045Z,2.07
2018-12-03T05:19:37.533Z,2.67
2018-12-03T05:22:05.407Z,2.27
2018-12-03T05:24:32.918Z,1.73
2018-12-03T05:27:00.574Z,1.70
2018-12-03T05:29:28.494Z,2.57
2018-12-03T05:31:55.948Z,2.47
2018-12-03T05:34:23.479Z,1.80
2018-12-03T05:36:51.103Z,1.67
2018-12-03T05:39:19.166Z,3.37
2018-12-03T05:41:46.831Z,3.60
2018-12-03T05:44:14.302Z,2.23
2018-12-03T05:46:41.769Z,3.70
2018-12-03T05:49:09.311Z,2.70
2018-12-03T05:51:36.778Z,2.30
2018-12-03T05:54:04.500Z,1.73
2018-12-03T05:56:32.025Z,1.80
2018-12-03T05:58:59.622Z,2.63
2018-12-03T06:01:27.323Z,5.13
2018-12-03T06:03:54.850Z,2.30
2018-12-03T06:06:22.373Z,2.97
2018-12-03T06:08:49.898Z,2.33
2018-12-03T06:11:17.355Z,4.30
2018-12-03T06:13:44.980Z,2.17
2018-12-03T06:16:12.637Z,3.87
2018-12-03T06:18:40.380Z,6.57
2018-12-03T06:21:07.940Z,5.30
2018-12-03T06:23:35.740Z,3.63
2018-12-03T06:26:03.393Z,5.27
2018-12-03T06:28:30.937Z,3.97
2018-12-03T06:30:58.416Z,5.77
2018-12-03T06:33:25.924Z,5.40
2018-12-03T06:35:53.417Z,4.40
2018-12-03T06:38:20.906Z,4.53
2018-12-03T06:40:48.404Z,4.07
2018-12-03T06:43:15.846Z,5.37
2018-12-03T06:45:43.373Z,3.90
2018-12-03T06:48:14.116Z,4.87
2018-12-03T06:50:41.920Z,7.90
2018-12-03T06:53:09.662Z,5.97
2018-12-03T06:55:37.208Z,7.97
2018-12-03T06:58:05.116Z,5.70
2018-12-03T07:00:32.696Z,8.50
2018-12-03T07:03:00.239Z,8.73
2018-12-03T07:05:27.837Z,10.53
2018-12-03T07:07:56.907Z,5.53
2018-12-03T07:10:24.814Z,8.87
2018-12-03T07:12:53.968Z,10.50
2018-12-03T07:15:21.952Z,7.90
2018-12-03T07:17:52.378Z,6.70
2018-12-03T07:20:19.939Z,6.40
2018-12-03T07:22:47.665Z,8.20
2018-12-03T07:25:15.182Z,12.13
2018-12-03T07:27:42.647Z,9.43
2018-12-03T07:30:14.614Z,8.00
2018-12-03T07:32:42.627Z,11.67
2018-12-03T07:35:10.268Z,10.63
2018-12-03T07:37:37.812Z,12.27
2018-12-03T07:40:07.650Z,11.67
2018-12-03T07:42:35.221Z,8.97
2018-12-03T07:45:03.400Z,11.30
2018-12-03T07:47:31.032Z,13.20
2018-12-03T07:49:58.550Z,14.13
2018-12-03T07:52:26.081Z,18.50
2018-12-03T07:54:53.722Z,17.73
2018-12-03T07:57:21.304Z,11.77
2018-12-03T07:59:49.032Z,13.87
2018-12-03T08:02:16.621Z,13.77
2018-12-03T08:04:44.168Z,20.00
2018-12-03T08:07:11.754Z,13.13
2018-12-03T08:09:39.204Z,17.27
2018-12-03T08:12:06.972Z,18.13
2018-12-03T08:14:34.723Z,12.50
2018-12-03T08:17:02.710Z,26.43
2018-12-03T08:19:30.231Z,16.60
2018-12-03T08:21:57.802Z,12.00
2018-12-03T08:24:25.286Z,14.60
2018-12-03T08:26:52.784Z,16.53
2018-12-03T08:29:20.322Z,12.20
2018-12-03T08:31:47.841Z,18.67
2018-12-03T08:34:15.601Z,13.33
2018-12-03T08:36:43.193Z,14.93
2018-12-03T08:39:10.888Z,13.47
2018-12-03T08:41:38.416Z,14.77
2018-12-03T08:44:05.947Z,16.43
2018-12-03T08:46:33.499Z,12.93
2018-12-03T08:49:01.177Z,17.57
2018-12-03T08:51:28.723Z,15.60
2018-12-03T08:53:56.192Z,14.37
2018-12-03T08:56:23.841Z,13.30
2018-12-03T08:58:51.527Z,16.53
2018-12-03T09:01:20.869Z,14.27
2018-12-03T09:03:57.409Z,14.10
2018-12-03T09:06:24.852Z,17.13
2018-12-03T09:08:52.465Z,12.33
2018-12-03T09:11:21.092Z,14.93
2018-12-03T09:13:48.696Z,16.83
2018-12-03T09:16:16.316Z,14.20
2018-12-03T09:18:43.818Z,13.67
2018-12-03T09:21:13.523Z,18.53
2018-12-03T09:23:43.177Z,17.83
2018-12-03T09:26:11.514Z,18.77
2018-12-03T09:28:38.970Z,17.67
2018-12-03T09:31:06.793Z,14.60
2018-12-03T09:33:34.512Z,14.50
2018-12-03T09:36:02.203Z,15.43
2018-12-03T09:38:30.896Z,14.83
2018-12-03T09:40:59.884Z,18.83
2018-12-03T09:43:28.516Z,15.40
2018-12-03T09:45:56.155Z,19.67
2018-12-03T09:48:23.734Z,12.90
2018-12-03T09:50:51.322Z,12.47
2018-12-03T09:53:18.854Z,21.00
2018-12-03T09:55:46.418Z,11.57
2018-12-03T09:58:16.068Z,15.00
2018-12-03T10:00:43.754Z,19.90
2018-12-03T10:03:21.108Z,13.67
2018-12-03T10:05:52.392Z,13.87
2018-12-03T10:08:23.948Z,17.03
2018-12-03T10:10:54.068Z,14.53
2018-12-03T10:13:21.524Z,12.67
2018-12-03T10:15:49.138Z,14.67
2018-12-03T10:18:16.692Z,11.67
2018-12-03T10:20:50.051Z,14.07
2018-12-03T10:23:17.582Z,11.97
2018-12-03T10:25:46.431Z,14.80
2018-12-03T10:28:13.889Z,16.30
2018-12-03T10:30:41.414Z,11.60
2018-12-03T10:33:08.995Z,13.03
2018-12-03T10:35:38.152Z,9.77
2018-12-03T10:38:10.423Z,7.27
2018-12-03T10:40:41.995Z,9.57
2018-12-03T10:43:10.733Z,11.87
2018-12-03T10:45:38.195Z,8.30
2018-12-03T10:48:06.283Z,11.80
2018-12-03T10:50:33.877Z,9.63
2018-12-03T10:53:01.388Z,9.30
2018-12-03T10:55:28.979Z,12.27
2018-12-03T10:57:56.706Z,12.50
2018-12-03T11:00:29.951Z,8.77
2018-12-03T11:03:00.811Z,11.00
2018-12-03T11:05:36.295Z,13.10
2018-12-03T11:08:04.107Z,11.43
2018-12-03T11:10:39.081Z,9.50
2018-12-03T11:13:06.883Z,13.17
2018-12-03T11:15:34.436Z,12.03
2018-12-03T11:18:03.069Z,16.40
2018-12-03T11:20:30.753Z,10.83
2018-12-03T11:22:58.417Z,16.10
2018-12-03T11:25:32.978Z,15.37
2018-12-03T11:28:03.267Z,9.87
2018-12-03T11:30:31.133Z,15.87
2018-12-03T11:32:58.619Z,17.43
2018-12-03T11:35:28.936Z,14.00
2018-12-03T11:38:08.601Z,10.53
2018-12-03T11:40:45.101Z,15.97
2018-12-03T11:43:12.823Z,17.53
2018-12-03T11:45:40.361Z,15.40
2018-12-03T11:48:07.887Z,14.30
2018-12-03T11:50:35.479Z,14.93
2018-12-03T11:53:03.055Z,14.23
2018-12-03T11:55:30.830Z,15.33
2018-12-03T11:57:58.369Z,13.67
2018-12-03T12:00:25.923Z,14.53
2018-12-03T12:02:54.379Z,13.70
2018-12-03T12:05:20.867Z,17.70
2018-12-03T12:07:48.612Z,12.53
2018-12-03T12:10:16.273Z,13.83
2018-12-03T12:12:44.536Z,15.60
2018-12-03T12:15:12.723Z,12.70
2018-12-03T12:17:40.206Z,14.50
2018-12-03T12:20:09.407Z,15.87
2018-12-03T12:22:36.947Z,15.23
2018-12-03T12:25:07.401Z,15.57
2018-12-03T12:27:34.931Z,14.97
2018-12-03T12:30:02.746Z,14.63
2018-12-03T12:32:30.237Z,18.07
2018-12-03T12:34:57.755Z,16.27
2018-12-03T12:37:25.337Z,18.67
2018-12-03T12:39:52.980Z,12.77
2018-12-03T12:42:20.492Z,13.67
2018-12-03T12:44:47.980Z,19.70
2018-12-03T12:47:15.514Z,16.20
2018-12-03T12:49:43.083Z,18.53
2018-12-03T12:52:11.521Z,16.80
2018-12-03T12:54:39.010Z,12.30
2018-12-03T12:57:06.776Z,12.23
2018-12-03T12:59:34.445Z,13.33
2018-12-03T13:02:02.188Z,13.17
2018-12-03T13:04:29.715Z,20.63
2018-12-03T13:06:57.238Z,13.37
2018-12-03T13:09:24.796Z,18.57
2018-12-03T13:11:52.252Z,15.83
2018-12-03T13:14:53.906Z,17.20
2018-12-03T13:17:21.400Z,15.70
2018-12-03T13:19:49.038Z,16.03
2018-12-03T13:22:16.769Z,14.60
2018-12-03T13:24:44.333Z,16.00
2018-12-03T13:27:12.036Z,11.60
2018-12-03T13:29:39.588Z,10.97
2018-12-03T13:32:07.257Z,9.70
2018-12-03T13:34:34.819Z,11.17
2018-12-03T13:37:02.526Z,9.03
2018-12-03T13:39:30.250Z,11.00
2018-12-03T13:41:57.802Z,12.47
2018-12-03T13:44:25.470Z,7.73
2018-12-03T13:46:53.194Z,8.73
2018-12-03T13:49:20.762Z,9.20
2018-12-03T13:51:48.374Z,10.10
2018-12-03T13:54:15.968Z,5.50
2018-12-03T13:56:43.821Z,7.50
2018-12-03T13:59:12.395Z,8.07
2018-12-03T14:01:39.991Z,6.10
2018-12-03T14:04:12.441Z,6.20
2018-12-03T14:06:45.748Z,6.53
2018-12-03T14:09:42.379Z,5.23
2018-12-03T14:12:29.854Z,4.33
2018-12-03T14:17:22.436Z,6.37
2018-12-03T14:19:53.266Z,8.27
2018-12-03T14:22:28.691Z,7.07
2018-12-03T14:24:56.256Z,6.10
2018-12-03T14:27:23.716Z,4.73
2018-12-03T14:29:51.190Z,6.07
2018-12-03T14:32:18.752Z,9.23
2018-12-03T14:34:46.506Z,6.57
2018-12-03T14:37:14.383Z,8.27
2018-12-03T14:39:42.340Z,8.40
2018-12-03T14:42:09.997Z,5.27
2018-12-03T14:44:37.564Z,4.23
2018-12-03T14:47:05.131Z,5.50
2018-12-03T14:49:32.817Z,7.30
2018-12-03T14:52:00.483Z,5.83
2018-12-03T14:54:28.270Z,9.03
2018-12-03T14:56:55.870Z,7.53
2018-12-03T14:59:23.434Z,9.67
2018-12-03T15:01:50.947Z,3.73
2018-12-03T15:04:18.619Z,8.67
2018-12-03T15:06:46.239Z,6.53
2018-12-03T15:09:14.079Z,5.00
2018-12-03T15:11:41.770Z,5.10
2018-12-03T15:14:09.431Z,8.23
2018-12-03T15:16:37.991Z,5.93
2018-12-03T15:19:11.360Z,6.43
2018-12-03T15:21:35.149Z,7.57
2018-12-03T15:24:03.155Z,7.60
2018-12-03T15:26:30.725Z,8.67
2018-12-03T15:28:58.393Z,3.83
2018-12-03T15:31:26.103Z,4.37
2018-12-03T15:33:53.709Z,6.30
2018-12-03T15:36:21.362Z,7.63
2018-12-03T15:38:49.119Z,6.03
2018-12-03T15:41:17.305Z,5.53
2018-12-03T15:43:44.844Z,3.83
2018-12-03T15:46:12.520Z,8.37
2018-12-03T15:48:40.045Z,5.13
2018-12-03T15:51:07.625Z,7.73
2018-12-03T15:53:35.227Z,5.50
2018-12-03T15:56:04.204Z,10.03
2018-12-03T15:58:31.805Z,7.20
2018-12-03T16:00:59.355Z,6.27
2018-12-03T16:03:26.936Z,10.30
2018-12-03T16:05:54.455Z,9.27
2018-12-03T16:08:22.171Z,6.37
2018-12-03T16:10:49.825Z,8.73
2018-12-03T16:13:17.956Z,7.93
2018-12-03T16:15:45.866Z,6.37
2018-12-03T16:18:13.392Z,8.53
2018-12-03T16:20:40.913Z,5.93
2018-12-03T16:23:08.293Z,8.33
2018-12-03T16:25:35.823Z,5.70
2018-12-03T16:28:03.351Z,11.07
2018-12-03T16:30:30.883Z,3.70
2018-12-03T16:32:58.455Z,6.23
2018-12-03T16:35:26.609Z,4.27
2018-12-03T16:37:54.209Z,4.67
2018-12-03T16:40:21.824Z,3.93
2018-12-03T16:42:49.567Z,5.37
2018-12-03T16:45:17.272Z,5.33
2018-12-03T16:47:44.848Z,4.03
2018-12-03T16:50:12.316Z,6.17
2018-12-03T16:52:40.214Z,3.50
2018-12-03T16:55:07.776Z,3.37
2018-12-03T16:57:35.540Z,5.30
2018-12-03T17:00:04.850Z,6.17
2018-12-03T17:02:33.173Z,4.60
2018-12-03T17:05:00.832Z,4.63
2018-12-03T17:07:28.415Z,3.20
2018-12-03T17:09:56.071Z,7.37
2018-12-03T17:12:27.364Z,5.60
2018-12-03T17:14:54.882Z,8.70
2018-12-03T17:17:22.577Z,4.23
2018-12-03T17:19:50.174Z,5.73
2018-12-03T17:22:28.904Z,8.20
2018-12-03T17:24:56.534Z,4.57
2018-12-03T17:27:24.107Z,4.70
2018-12-03T17:29:51.667Z,6.37
2018-12-03T17:32:19.257Z,9.67
2018-12-03T17:34:48.957Z,9.73
2018-12-03T17:37:16.510Z,5.90
2018-12-03T17:39:44.123Z,5.30
2018-12-03T17:44:46.065Z,5.80
2018-12-03T17:47:13.859Z,4.77
2018-12-03T17:49:41.595Z,10.13
2018-12-03T17:52:09.191Z,6.97
2018-12-03T17:54:36.798Z,8.90
2018-12-03T17:57:04.773Z,7.77
2018-12-03T17:59:32.459Z,11.83
2018-12-03T18:02:00.065Z,8.93
2018-12-03T18:04:27.569Z,7.30
2018-12-03T18:06:55.235Z,8.23
2018-12-03T18:09:22.848Z,8.70
2018-12-03T18:11:50.490Z,8.43
2018-12-03T18:14:18.126Z,8.43
2018-12-03T18:16:46.060Z,9.37
2018-12-03T18:19:13.796Z,10.20
2018-12-03T18:21:41.398Z,11.07
2018-12-03T18:24:09.386Z,7.20
2018-12-03T18:26:36.959Z,8.50
2018-12-03T18:29:04.678Z,13.33
2018-12-03T18:31:32.187Z,9.07
2018-12-03T18:33:59.860Z,10.73
2018-12-03T18:36:27.416Z,10.13
2018-12-03T18:38:55.056Z,8.03
2018-12-03T18:41:22.855Z,13.13
2018-12-03T18:43:50.660Z,10.70
2018-12-03T18:46:18.300Z,6.60
2018-12-03T18:48:48.310Z,10.90
2018-12-03T18:51:15.777Z,6.53
2018-12-03T18:53:43.352Z,8.67
2018-12-03T18:56:10.999Z,10.43
2018-12-03T18:58:42.174Z,9.97
2018-12-03T19:01:09.908Z,10.67
2018-12-03T19:03:37.542Z,11.23
2018-12-03T19:06:06.274Z,8.67
2018-12-03T19:08:33.965Z,12.53
2018-12-03T19:11:01.539Z,13.77
2018-12-03T19:13:29.168Z,11.53
2018-12-03T19:15:56.694Z,12.83
2018-12-03T19:18:24.257Z,17.03
2018-12-03T19:20:52.008Z,8.00
2018-12-03T19:23:19.572Z,11.63
2018-12-03T19:25:47.245Z,10.17
2018-12-03T19:28:14.728Z,11.87
2018-12-03T19:30:42.337Z,11.03
2018-12-03T19:33:09.983Z,13.10
2018-12-03T19:35:37.615Z,11.33
2018-12-03T19:38:05.213Z,12.30
2018-12-03T19:40:32.720Z,12.13
2018-12-03T19:43:00.324Z,14.40
2018-12-03T19:45:27.991Z,10.53
2018-12-03T19:47:55.535Z,12.83
2018-12-03T19:50:23.234Z,12.40
2018-12-03T19:52:52.540Z,11.63
2018-12-03T19:55:20.533Z,15.60
2018-12-03T19:57:53.361Z,14.43
2018-12-03T20:00:21.194Z,14.00
2018-12-03T20:02:48.927Z,13.97
2018-12-03T20:05:18.116Z,17.23
2018-12-03T20:07:46.154Z,12.97
2018-12-03T20:10:13.741Z,12.07
2018-12-03T20:12:41.607Z,15.90
2018-12-03T20:15:09.741Z,19.10
2018-12-03T20:17:39.367Z,18.63
2018-12-03T20:20:12.335Z,19.63
2018-12-03T20:22:48.444Z,17.63
2018-12-03T20:25:19.250Z,19.67
2018-12-03T20:27:52.642Z,15.90
2018-12-03T20:30:31.900Z,23.37
2018-12-03T20:33:07.112Z,20.27
2018-12-03T20:35:57.138Z,22.40
2018-12-03T20:38:30.802Z,20.70
2018-12-03T20:41:25.514Z,18.73
2018-12-03T20:43:55.882Z,21.00
2018-12-03T20:46:35.472Z,26.80
2018-12-03T20:49:26.953Z,15.33
2018-12-03T20:52:00.929Z,26.73
2018-12-03T20:54:28.611Z,19.17
2018-12-03T20:56:56.176Z,20.03
2018-12-03T20:59:23.852Z,16.53
2018-12-03T21:01:51.556Z,18.87
2018-12-03T21:04:21.587Z,20.60
2018-12-03T21:06:49.549Z,26.37
2018-12-03T21:09:17.046Z,23.93
2018-12-03T21:11:44.568Z,19.90
2018-12-03T21:14:12.139Z,16.53
2018-12-03T21:16:39.804Z,17.43
2018-12-03T21:19:07.398Z,19.07
2018-12-03T21:21:34.976Z,20.00
2018-12-03T21:24:02.531Z,21.37
2018-12-03T21:26:30.156Z,21.17
2018-12-03T21:28:58.024Z,17.13
2018-12-03T21:31:25.780Z,15.27
2018-12-03T21:33:53.360Z,18.13
2018-12-03T21:36:20.996Z,17.63
2018-12-03T21:38:48.658Z,17.97
2018-12-03T21:41:16.226Z,22.90
2018-12-03T21:43:43.740Z,21.63
2018-12-03T21:46:11.168Z,23.50
2018-12-03T21:48:39.069Z,18.87
2018-12-03T21:51:06.596Z,14.10
2018-12-03T21:53:34.016Z,20.00
2018-12-03T21:56:01.639Z,14.60
2018-12-03T21:58:29.331Z,16.13
2018-12-03T22:00:56.810Z,20.53
2018-12-03T22:03:24.360Z,16.70
2018-12-03T22:05:51.872Z,17.43
2018-12-03T22:08:19.430Z,15.77
2018-12-03T22:10:46.969Z,15.87
2018-12-03T22:13:14.501Z,17.83
2018-12-03T22:15:42.020Z,17.73
2018-12-03T22:18:09.589Z,15.83
2018-12-03T22:20:37.500Z,15.43
2018-12-03T22:23:05.049Z,20.70
2018-12-03T22:25:32.566Z,11.67
2018-12-03T22:28:00.106Z,16.40
2018-12-03T22:30:27.523Z,14.53
2018-12-03T22:32:55.041Z,20.33
2018-12-03T22:35:22.601Z,16.23
2018-12-03T22:37:50.172Z,16.17
2018-12-03T22:40:17.727Z,13.67
2018-12-03T22:42:45.305Z,17.43
2018-12-03T22:45:12.771Z,17.87
2018-12-03T22:47:40.257Z,14.30
2018-12-03T22:50:07.936Z,17.20
2018-12-03T22:52:35.466Z,14.23
2018-12-03T22:55:03.064Z,13.03
2018-12-03T22:57:30.560Z,14.20
2018-12-03T22:59:58.108Z,11.47
2018-12-03T23:02:25.834Z,16.83
2018-12-03T23:04:53.448Z,13.57
2018-12-03T23:07:21.010Z,16.00
2018-12-03T23:09:48.759Z,13.00
2018-12-03T23:12:16.420Z,17.53
2018-12-03T23:14:44.063Z,12.40
2018-12-03T23:17:11.704Z,11.23
2018-12-03T23:19:39.255Z,17.93
2018-12-03T23:22:06.732Z,17.80
2018-12-03T23:24:34.228Z,14.07
2018-12-03T23:27:01.721Z,21.23
2018-12-03T23:29:29.244Z,14.57
2018-12-03T23:31:56.769Z,14.37
2018-12-03T23:34:24.363Z,17.27
2018-12-03T23:36:51.958Z,14.53
2018-12-03T23:39:19.484Z,14.60
2018-12-03T23:41:47.203Z,19.53
2018-12-03T23:44:14.842Z,15.90
2018-12-03T23:46:42.521Z,12.93
2018-12-03T23:49:10.068Z,17.80
2018-12-03T23:51:37.606Z,19.60
2018-12-03T23:54:05.091Z,14.50
2018-12-03T23:56:32.677Z,13.40
2018-12-03T23:59:00.312Z,11.17
